createdAt,value
2023-02-26T00:01:33.390Z,5.30
2023-02-26T00:04:03.354Z,5.30
2023-02-26T00:06:34.926Z,5.30
2023-02-26T00:09:02.192Z,5.20
2023-02-26T00:11:30.566Z,5.20
2023-02-26T00:13:58.455Z,5.20
2023-02-26T00:16:31.839Z,5.20
2023-02-26T00:19:04.013Z,5.20
2023-02-26T00:21:32.374Z,5.10
2023-02-26T00:24:00.450Z,5.10
2023-02-26T00:26:28.633Z,5.10
2023-02-26T00:28:56.602Z,5.10
2023-02-26T00:31:25.590Z,5.00
2023-02-26T00:33:56.934Z,5.00
2023-02-26T00:36:59.623Z,4.90
2023-02-26T00:39:58.231Z,4.90
2023-02-26T00:45:09.756Z,4.80
2023-02-26T00:48:02.139Z,4.80
2023-02-26T00:50:30.762Z,4.80
2023-02-26T00:53:19.726Z,4.80
2023-02-26T00:55:46.493Z,4.80
2023-02-26T00:58:13.192Z,4.80
2023-02-26T01:00:39.961Z,4.80
2023-02-26T01:03:08.329Z,4.80
2023-02-26T01:05:35.334Z,4.80
2023-02-26T01:08:17.930Z,4.80
2023-02-26T01:10:45.019Z,4.80
2023-02-26T01:13:12.567Z,4.70
2023-02-26T01:15:47.818Z,4.70
2023-02-26T01:18:23.259Z,4.70
2023-02-26T01:20:57.366Z,4.70
2023-02-26T01:23:32.361Z,4.70
2023-02-26T01:26:27.537Z,4.70
2023-02-26T01:28:55.113Z,4.70
2023-02-26T01:31:33.781Z,4.60
2023-02-26T01:34:18.429Z,4.60
2023-02-26T01:36:56.543Z,4.50
2023-02-26T01:39:33.518Z,4.50
2023-02-26T01:42:13.479Z,4.50
2023-02-26T01:45:11.777Z,4.50
2023-02-26T01:47:56.709Z,4.50
2023-02-26T01:50:29.988Z,4.50
2023-02-26T01:53:21.129Z,4.50
2023-02-26T01:55:56.580Z,4.50
2023-02-26T01:58:27.204Z,4.50
2023-02-26T02:00:54.049Z,4.50
2023-02-26T02:03:21.893Z,4.50
2023-02-26T02:05:55.300Z,4.50
2023-02-26T02:08:22.696Z,4.50
2023-02-26T02:10:51.563Z,4.50
2023-02-26T02:13:42.172Z,4.60
2023-02-26T02:16:18.116Z,4.50
2023-02-26T02:18:56.860Z,4.60
2023-02-26T02:21:30.856Z,4.60
2023-02-26T02:24:02.780Z,4.60
2023-02-26T02:26:55.990Z,4.60
2023-02-26T02:29:28.268Z,4.60
2023-02-26T02:32:11.424Z,4.60
2023-02-26T02:34:58.648Z,4.50
2023-02-26T02:37:46.284Z,4.60
2023-02-26T02:40:23.959Z,4.60
2023-02-26T02:43:09.647Z,4.60
2023-02-26T02:45:49.195Z,4.60
2023-02-26T02:48:39.705Z,4.50
2023-02-26T02:51:33.314Z,4.50
2023-02-26T02:54:27.068Z,4.50
2023-02-26T02:57:03.274Z,4.50
2023-02-26T02:59:36.110Z,4.50
2023-02-26T03:02:19.213Z,4.50
2023-02-26T03:04:46.478Z,4.50
2023-02-26T03:07:13.607Z,4.40
2023-02-26T03:09:40.751Z,4.40
2023-02-26T03:12:07.816Z,4.40
2023-02-26T03:14:34.794Z,4.40
2023-02-26T03:17:17.100Z,4.40
2023-02-26T03:20:17.134Z,4.40
2023-02-26T03:23:14.887Z,4.30
2023-02-26T03:25:54.445Z,4.30
2023-02-26T03:28:33.082Z,4.30
2023-02-26T03:31:29.737Z,4.30
2023-02-26T03:34:12.406Z,4.20
2023-02-26T03:36:54.370Z,4.20
2023-02-26T03:39:38.718Z,4.20
2023-02-26T03:42:12.613Z,4.20
2023-02-26T03:44:55.163Z,4.20
2023-02-26T03:47:22.886Z,4.20
2023-02-26T03:49:55.052Z,4.20
2023-02-26T03:52:25.683Z,4.20
2023-02-26T03:55:05.144Z,4.20
2023-02-26T03:57:31.980Z,4.20
2023-02-26T03:59:58.790Z,4.20
2023-02-26T04:02:32.268Z,4.10
2023-02-26T04:05:16.442Z,4.10
2023-02-26T04:07:44.887Z,4.10
2023-02-26T04:10:16.603Z,4.10
2023-02-26T04:12:44.361Z,4.10
2023-02-26T04:15:11.801Z,4.00
2023-02-26T04:17:38.546Z,4.00
2023-02-26T04:20:12.456Z,4.00
2023-02-26T04:22:40.978Z,3.90
2023-02-26T04:25:08.027Z,3.90
2023-02-26T04:27:34.768Z,3.80
2023-02-26T04:30:01.503Z,3.70
2023-02-26T04:32:28.397Z,3.70
2023-02-26T04:34:55.313Z,3.70
2023-02-26T04:37:22.845Z,3.70
2023-02-26T04:39:49.614Z,3.70
2023-02-26T04:42:17.734Z,3.70
2023-02-26T04:44:44.423Z,3.70
2023-02-26T04:47:11.076Z,3.80
2023-02-26T04:49:37.798Z,3.80
2023-02-26T04:52:04.608Z,3.80
2023-02-26T04:54:31.456Z,3.80
2023-02-26T04:57:00.831Z,3.70
2023-02-26T04:59:27.636Z,3.80
2023-02-26T05:01:57.360Z,3.80
2023-02-26T05:04:24.190Z,3.80
2023-02-26T05:06:51.004Z,3.80
2023-02-26T05:09:17.828Z,3.70
2023-02-26T05:11:45.709Z,3.70
2023-02-26T05:14:12.551Z,3.70
2023-02-26T05:16:40.629Z,3.70
2023-02-26T05:19:09.102Z,3.70
2023-02-26T05:21:36.053Z,3.70
2023-02-26T05:24:02.750Z,3.70
2023-02-26T05:26:30.834Z,3.70
2023-02-26T05:28:57.842Z,3.70
2023-02-26T05:31:25.062Z,3.60
2023-02-26T05:33:51.829Z,3.70
2023-02-26T05:36:18.691Z,3.80
2023-02-26T05:38:45.405Z,3.80
2023-02-26T05:41:12.175Z,3.80
2023-02-26T05:43:39.592Z,3.80
2023-02-26T05:46:09.250Z,3.70
2023-02-26T05:48:36.232Z,3.60
2023-02-26T05:51:03.177Z,3.50
2023-02-26T05:53:29.985Z,3.50
2023-02-26T05:56:02.660Z,3.50
2023-02-26T05:58:32.029Z,3.50
2023-02-26T06:01:00.766Z,3.50
2023-02-26T06:03:27.622Z,3.50
2023-02-26T06:05:54.429Z,3.50
2023-02-26T06:08:25.267Z,3.50
2023-02-26T06:10:52.390Z,3.60
2023-02-26T06:13:20.359Z,3.50
2023-02-26T06:15:49.863Z,3.60
2023-02-26T06:18:16.994Z,3.60
2023-02-26T06:20:45.966Z,3.60
2023-02-26T06:23:15.133Z,3.60
2023-02-26T06:25:42.710Z,3.60
2023-02-26T06:28:10.934Z,3.70
2023-02-26T06:30:39.151Z,3.60
2023-02-26T06:33:07.156Z,3.60
2023-02-26T06:35:33.876Z,3.60
2023-02-26T06:38:00.586Z,3.90
2023-02-26T06:40:27.328Z,3.90
2023-02-26T06:42:55.285Z,3.90
2023-02-26T06:45:22.063Z,3.80
2023-02-26T06:47:51.011Z,3.80
2023-02-26T06:50:20.193Z,3.80
2023-02-26T06:52:46.933Z,3.80
2023-02-26T06:55:13.840Z,3.80
2023-02-26T06:57:41.637Z,3.80
2023-02-26T07:00:09.618Z,3.70
2023-02-26T07:02:36.675Z,3.70
2023-02-26T07:05:03.555Z,3.70
2023-02-26T07:07:30.353Z,3.70
2023-02-26T07:09:57.470Z,3.70
2023-02-26T07:12:25.117Z,3.70
2023-02-26T07:14:52.239Z,3.70
2023-02-26T07:17:22.864Z,3.90
2023-02-26T07:19:55.436Z,3.90
2023-02-26T07:22:22.542Z,3.90
2023-02-26T07:24:52.417Z,3.90
2023-02-26T07:27:19.252Z,3.90
2023-02-26T07:29:53.073Z,3.90
2023-02-26T07:32:19.796Z,4.00
2023-02-26T07:34:48.560Z,4.10
2023-02-26T07:37:15.518Z,4.10
2023-02-26T07:39:42.633Z,4.10
2023-02-26T07:42:09.515Z,4.00
2023-02-26T07:44:36.516Z,4.10
2023-02-26T07:47:03.866Z,4.20
2023-02-26T07:49:32.589Z,4.40
2023-02-26T07:52:02.431Z,4.60
2023-02-26T07:54:29.169Z,4.80
2023-02-26T07:56:56.013Z,5.10
2023-02-26T07:59:23.113Z,5.30
2023-02-26T08:01:49.971Z,5.50
2023-02-26T08:04:17.835Z,5.70
2023-02-26T08:06:44.547Z,5.80
2023-02-26T08:09:21.252Z,6.00
2023-02-26T08:11:49.250Z,6.20
2023-02-26T08:14:16.255Z,6.40
2023-02-26T08:16:43.104Z,6.50
2023-02-26T08:19:10.083Z,6.60
2023-02-26T08:21:41.174Z,6.80
2023-02-26T08:24:07.895Z,6.90
2023-02-26T08:26:37.578Z,6.70
2023-02-26T08:31:32.205Z,6.30
2023-02-26T08:33:59.230Z,6.10
2023-02-26T08:36:28.746Z,5.90
2023-02-26T08:38:56.754Z,5.80
2023-02-26T08:41:25.220Z,5.80
2023-02-26T08:43:52.293Z,5.90
2023-02-26T08:46:20.265Z,6.20
2023-02-26T08:48:47.187Z,6.50
2023-02-26T08:51:15.556Z,6.70
2023-02-26T08:53:47.808Z,6.90
2023-02-26T08:56:16.297Z,7.00
2023-02-26T08:58:43.827Z,7.20
2023-02-26T09:01:12.245Z,7.40
2023-02-26T09:03:40.397Z,7.50
2023-02-26T09:06:07.226Z,7.60
2023-02-26T09:08:36.852Z,7.70
2023-02-26T09:11:05.925Z,7.70
2023-02-26T09:13:33.166Z,7.80
2023-02-26T09:16:00.228Z,7.80
2023-02-26T09:18:27.848Z,7.70
2023-02-26T09:20:55.978Z,7.70
2023-02-26T09:23:24.755Z,7.40
2023-02-26T09:25:55.931Z,7.40
2023-02-26T09:28:25.422Z,7.40
2023-02-26T09:30:56.468Z,7.30
2023-02-26T09:33:23.590Z,7.30
2023-02-26T09:35:51.178Z,7.30
2023-02-26T09:38:18.947Z,7.10
2023-02-26T09:40:52.981Z,6.90
2023-02-26T09:43:51.329Z,6.90
2023-02-26T09:46:40.934Z,7.00
2023-02-26T09:49:25.167Z,6.90
2023-02-26T09:51:56.808Z,6.90
2023-02-26T09:54:27.688Z,6.80
2023-02-26T09:57:02.724Z,6.60
2023-02-26T09:59:34.158Z,6.60
2023-02-26T10:02:12.493Z,6.60
2023-02-26T10:05:16.670Z,6.60
2023-02-26T10:08:07.112Z,6.50
2023-02-26T10:10:48.921Z,6.40
2023-02-26T10:13:56.655Z,6.40
2023-02-26T10:16:36.345Z,6.20
2023-02-26T10:19:11.536Z,6.20
2023-02-26T10:21:44.068Z,6.20
2023-02-26T10:24:19.864Z,6.20
2023-02-26T10:26:54.326Z,6.20
2023-02-26T10:29:58.352Z,6.20
2023-02-26T10:32:53.531Z,6.20
2023-02-26T10:35:21.418Z,6.20
2023-02-26T10:38:08.894Z,6.00
2023-02-26T10:40:48.655Z,5.90
2023-02-26T10:43:22.168Z,6.00
2023-02-26T10:46:11.654Z,5.90
2023-02-26T10:48:57.566Z,5.90
2023-02-26T10:51:29.277Z,6.00
2023-02-26T10:54:05.371Z,6.00
2023-02-26T10:56:34.554Z,6.00
2023-02-26T10:59:02.004Z,5.90
2023-02-26T11:01:31.445Z,5.90
2023-02-26T11:04:09.600Z,6.00
2023-02-26T11:06:45.107Z,5.90
2023-02-26T11:09:22.318Z,6.00
2023-02-26T11:11:56.703Z,6.00
2023-02-26T11:14:28.131Z,6.10
2023-02-26T11:17:03.609Z,6.20
2023-02-26T11:19:47.213Z,6.30
2023-02-26T11:22:14.984Z,6.20
2023-02-26T11:24:50.043Z,6.30
2023-02-26T11:27:23.178Z,6.10
2023-02-26T11:29:58.274Z,5.90
2023-02-26T11:32:38.313Z,5.90
2023-02-26T11:35:09.644Z,5.90
2023-02-26T11:37:41.495Z,5.80
2023-02-26T11:40:51.423Z,5.60
2023-02-26T11:43:20.958Z,5.70
2023-02-26T11:45:53.873Z,5.70
2023-02-26T11:48:29.288Z,5.60
2023-02-26T11:51:00.474Z,5.60
2023-02-26T11:53:32.243Z,5.70
2023-02-26T11:56:09.298Z,5.70
2023-02-26T11:58:39.093Z,5.70
2023-02-26T12:01:08.950Z,5.70
2023-02-26T12:03:41.493Z,5.70
2023-02-26T12:06:24.762Z,5.70
2023-02-26T12:08:54.101Z,5.80
2023-02-26T12:11:30.312Z,5.80
2023-02-26T12:14:08.885Z,5.70
2023-02-26T12:17:17.883Z,5.80
2023-02-26T12:20:20.843Z,5.60
2023-02-26T12:23:22.196Z,5.70
2023-02-26T12:26:03.376Z,5.70
2023-02-26T12:28:45.313Z,5.50
2023-02-26T12:31:42.324Z,5.50
2023-02-26T12:34:59.091Z,5.40
2023-02-26T12:38:19.556Z,5.50
2023-02-26T12:41:05.278Z,5.60
2023-02-26T12:43:50.941Z,5.70
2023-02-26T12:49:25.915Z,5.60
2023-02-26T12:52:23.817Z,5.70
2023-02-26T12:55:22.491Z,5.70
2023-02-26T12:57:54.124Z,5.80
2023-02-26T13:00:31.949Z,5.80
2023-02-26T13:03:23.027Z,5.90
2023-02-26T13:06:08.943Z,5.90
2023-02-26T13:08:49.626Z,5.90
2023-02-26T13:11:20.540Z,5.90
2023-02-26T13:14:09.741Z,5.90
2023-02-26T13:17:00.884Z,5.90
2023-02-26T13:19:37.505Z,5.90
2023-02-26T13:22:21.264Z,5.90
2023-02-26T13:24:55.974Z,5.80
2023-02-26T13:27:27.187Z,5.90
2023-02-26T13:30:09.275Z,6.00
2023-02-26T13:32:37.929Z,5.90
2023-02-26T13:35:28.977Z,5.80
2023-02-26T13:38:06.883Z,5.80
2023-02-26T13:40:48.756Z,5.80
2023-02-26T13:43:46.447Z,5.90
2023-02-26T13:46:43.944Z,5.90
2023-02-26T13:49:20.954Z,6.00
2023-02-26T13:51:49.622Z,5.90
2023-02-26T13:54:22.502Z,6.00
2023-02-26T13:57:26.086Z,5.90
2023-02-26T14:00:36.815Z,5.80
2023-02-26T14:03:26.016Z,5.70
2023-02-26T14:06:17.295Z,5.70
2023-02-26T14:08:45.890Z,5.60
2023-02-26T14:11:31.785Z,5.70
2023-02-26T14:14:39.023Z,5.60
2023-02-26T14:17:08.939Z,5.70
2023-02-26T14:20:19.527Z,5.60
2023-02-26T14:22:52.194Z,5.70
2023-02-26T14:25:34.918Z,5.70
2023-02-26T14:28:20.798Z,5.70
2023-02-26T14:30:52.982Z,5.70
2023-02-26T14:33:27.533Z,5.90
2023-02-26T14:35:55.458Z,5.90
2023-02-26T14:38:28.631Z,5.80
2023-02-26T14:41:05.036Z,5.70
2023-02-26T14:43:44.026Z,5.80
2023-02-26T14:46:12.391Z,5.90
2023-02-26T14:48:43.366Z,5.90
2023-02-26T14:51:50.685Z,5.80
2023-02-26T14:54:33.175Z,5.70
2023-02-26T14:57:31.673Z,5.80
2023-02-26T15:00:31.670Z,5.80
2023-02-26T15:03:24.104Z,5.80
2023-02-26T15:06:16.662Z,5.80
2023-02-26T15:08:43.395Z,5.90
2023-02-26T15:11:40.852Z,6.00
2023-02-26T15:14:10.642Z,6.00
2023-02-26T15:17:13.404Z,5.90
2023-02-26T15:20:06.314Z,6.00
2023-02-26T15:22:48.489Z,6.00
2023-02-26T15:25:37.668Z,6.00
2023-02-26T15:28:07.893Z,6.00
2023-02-26T15:30:35.563Z,6.10
2023-02-26T15:33:07.578Z,6.10
2023-02-26T15:35:37.765Z,6.10
2023-02-26T15:38:05.096Z,6.20
2023-02-26T15:40:36.363Z,6.20
2023-02-26T15:43:05.481Z,6.20
2023-02-26T15:45:40.276Z,6.20
2023-02-26T15:48:15.269Z,6.00
2023-02-26T15:50:44.957Z,6.00
2023-02-26T15:53:19.476Z,6.00
2023-02-26T15:55:54.917Z,6.00
2023-02-26T15:58:39.452Z,6.00
2023-02-26T16:01:07.367Z,5.90
2023-02-26T16:03:37.130Z,6.00
2023-02-26T16:06:06.548Z,6.00
2023-02-26T16:08:34.643Z,6.10
2023-02-26T16:11:02.458Z,6.10
2023-02-26T16:13:38.120Z,6.10
2023-02-26T16:16:17.849Z,6.10
2023-02-26T16:18:45.848Z,6.10
2023-02-26T16:21:27.155Z,6.10
2023-02-26T16:23:57.409Z,6.20
2023-02-26T16:26:40.349Z,6.00
2023-02-26T16:29:17.224Z,5.90
2023-02-26T16:31:56.845Z,5.90
2023-02-26T16:34:54.037Z,5.80
2023-02-26T16:37:30.102Z,5.80
2023-02-26T16:40:28.499Z,5.90
2023-02-26T16:43:31.363Z,5.90
2023-02-26T16:46:03.654Z,5.90
2023-02-26T16:48:37.336Z,6.00
2023-02-26T16:51:12.703Z,5.90
2023-02-26T16:53:50.859Z,5.90
2023-02-26T16:56:21.213Z,5.90
2023-02-26T16:59:24.932Z,5.90
2023-02-26T17:02:02.145Z,5.90
2023-02-26T17:04:32.363Z,5.80
2023-02-26T17:06:59.514Z,5.80
2023-02-26T17:09:42.793Z,5.80
2023-02-26T17:12:19.258Z,5.80
2023-02-26T17:14:56.336Z,5.70
2023-02-26T17:17:24.185Z,5.70
2023-02-26T17:26:26.511Z,5.80
2023-02-26T17:28:54.564Z,5.70
2023-02-26T17:31:21.357Z,5.70
2023-02-26T17:33:48.342Z,5.70
2023-02-26T17:36:18.763Z,5.70
2023-02-26T17:38:47.703Z,5.70
2023-02-26T17:41:19.343Z,5.80
2023-02-26T17:43:46.133Z,5.80
2023-02-26T17:46:15.646Z,5.80
2023-02-26T17:48:42.474Z,5.80
2023-02-26T17:51:09.511Z,5.90
2023-02-26T17:53:41.086Z,5.90
2023-02-26T17:56:38.824Z,5.90
2023-02-26T17:59:07.135Z,5.90
2023-02-26T18:01:33.955Z,5.90
2023-02-26T18:04:04.491Z,5.90
2023-02-26T18:06:34.997Z,5.80
2023-02-26T18:09:04.483Z,5.80
2023-02-26T18:11:32.882Z,5.70
2023-02-26T18:14:01.620Z,5.70
2023-02-26T18:16:33.295Z,5.70
2023-02-26T18:19:03.208Z,5.60
2023-02-26T18:21:31.778Z,5.70
2023-02-26T18:24:01.099Z,5.70
2023-02-26T18:26:31.491Z,5.60
2023-02-26T18:28:59.712Z,5.60
2023-02-26T18:31:35.418Z,5.70
2023-02-26T18:34:03.437Z,5.60
2023-02-26T18:36:34.520Z,5.60
2023-02-26T18:39:06.785Z,5.60
2023-02-26T18:41:33.672Z,5.60
2023-02-26T18:44:01.591Z,5.50
2023-02-26T18:46:30.350Z,5.50
2023-02-26T18:48:57.251Z,5.50
2023-02-26T18:51:24.891Z,5.50
2023-02-26T18:53:51.932Z,5.40
2023-02-26T18:56:18.721Z,5.30
2023-02-26T18:58:45.455Z,5.30
2023-02-26T19:01:13.488Z,5.30
2023-02-26T19:03:41.262Z,5.30
2023-02-26T19:06:11.488Z,5.30
2023-02-26T19:08:46.861Z,5.50
2023-02-26T19:11:13.804Z,5.30
2023-02-26T19:13:40.560Z,5.30
2023-02-26T19:16:07.446Z,5.40
2023-02-26T19:18:34.482Z,5.30
2023-02-26T19:21:02.523Z,5.30
2023-02-26T19:23:29.260Z,5.20
2023-02-26T19:25:56.525Z,5.20
2023-02-26T19:28:24.807Z,5.30
2023-02-26T19:30:57.509Z,5.20
2023-02-26T19:33:26.162Z,5.20
2023-02-26T19:35:53.065Z,5.20
2023-02-26T19:38:20.939Z,5.30
2023-02-26T19:40:49.266Z,5.30
2023-02-26T19:43:17.245Z,5.20
2023-02-26T19:45:51.521Z,5.20
2023-02-26T19:48:18.265Z,5.20
2023-02-26T19:50:47.019Z,5.20
2023-02-26T19:53:16.194Z,5.20
2023-02-26T19:55:44.226Z,5.20
2023-02-26T19:58:10.982Z,5.20
2023-02-26T20:00:37.985Z,5.10
2023-02-26T20:03:04.891Z,5.10
2023-02-26T20:05:32.077Z,5.10
2023-02-26T20:07:58.894Z,5.10
2023-02-26T20:10:26.867Z,5.10
2023-02-26T20:12:53.669Z,5.10
2023-02-26T20:15:22.028Z,5.00
2023-02-26T20:17:48.814Z,5.00
2023-02-26T20:20:15.671Z,5.00
2023-02-26T20:22:42.486Z,5.00
2023-02-26T20:25:09.641Z,5.00
2023-02-26T20:27:39.138Z,5.00
2023-02-26T20:30:08.909Z,5.00
2023-02-26T20:32:38.117Z,4.90
2023-02-26T20:35:10.913Z,4.90
2023-02-26T20:37:37.767Z,4.90
2023-02-26T20:40:05.745Z,4.90
2023-02-26T20:42:33.628Z,4.80
2023-02-26T20:45:04.274Z,4.80
2023-02-26T20:47:32.511Z,4.80
2023-02-26T20:50:00.890Z,4.80
2023-02-26T20:52:27.781Z,4.70
2023-02-26T20:54:54.487Z,4.70
2023-02-26T20:57:21.408Z,4.70
2023-02-26T20:59:48.314Z,4.70
2023-02-26T21:02:15.738Z,4.60
2023-02-26T21:04:42.561Z,4.60
2023-02-26T21:07:23.268Z,4.60
2023-02-26T21:09:53.218Z,4.60
2023-02-26T21:12:20.415Z,4.50
2023-02-26T21:14:47.463Z,4.50
2023-02-26T21:17:14.174Z,4.50
2023-02-26T21:19:41.169Z,4.40
2023-02-26T21:22:08.065Z,4.40
2023-02-26T21:24:34.785Z,4.40
2023-02-26T21:27:03.710Z,4.30
2023-02-26T21:29:31.553Z,4.30
2023-02-26T21:32:03.401Z,4.30
2023-02-26T21:34:34.945Z,4.20
2023-02-26T21:37:03.691Z,4.10
2023-02-26T21:39:31.396Z,4.10
2023-02-26T21:42:00.197Z,4.10
2023-02-26T21:44:28.728Z,4.00
2023-02-26T21:46:57.430Z,4.30
2023-02-26T21:49:31.156Z,4.40
2023-02-26T21:52:01.531Z,4.30
2023-02-26T21:54:29.308Z,4.30
2023-02-26T21:56:56.549Z,4.20
2023-02-26T21:59:24.075Z,4.10
2023-02-26T22:01:52.184Z,4.00
2023-02-26T22:04:19.407Z,4.00
2023-02-26T22:06:46.235Z,4.00
2023-02-26T22:09:13.336Z,4.00
2023-02-26T22:11:40.335Z,3.90
2023-02-26T22:14:07.159Z,3.90
2023-02-26T22:16:34.097Z,3.90
2023-02-26T22:19:02.385Z,3.90
2023-02-26T22:21:29.443Z,3.90
2023-02-26T22:23:56.305Z,3.90
2023-02-26T22:26:24.999Z,3.80
2023-02-26T22:28:54.235Z,3.80
2023-02-26T22:31:25.401Z,3.70
2023-02-26T22:33:52.451Z,3.60
2023-02-26T22:36:19.327Z,3.60
2023-02-26T22:38:47.564Z,3.60
2023-02-26T22:41:16.209Z,3.50
2023-02-26T22:43:42.970Z,3.50
2023-02-26T22:46:11.016Z,3.50
2023-02-26T22:48:38.997Z,3.50
2023-02-26T22:51:10.413Z,3.50
2023-02-26T22:53:37.243Z,3.40
2023-02-26T22:56:04.258Z,3.50
2023-02-26T22:58:33.159Z,3.50
2023-02-26T23:01:05.671Z,3.40
2023-02-26T23:03:33.312Z,3.40
2023-02-26T23:06:02.042Z,3.30
2023-02-26T23:08:28.870Z,3.30
2023-02-26T23:10:57.916Z,3.30
2023-02-26T23:13:26.169Z,3.30
2023-02-26T23:15:53.874Z,3.30
2023-02-26T23:18:20.734Z,3.20
2023-02-26T23:20:48.952Z,3.20
2023-02-26T23:23:16.361Z,3.20
2023-02-26T23:25:44.195Z,3.10
2023-02-26T23:28:12.084Z,3.10
2023-02-26T23:30:39.435Z,3.10
2023-02-26T23:33:10.456Z,3.00
2023-02-26T23:35:37.853Z,3.00
2023-02-26T23:38:07.098Z,3.00
2023-02-26T23:40:35.195Z,2.90
2023-02-26T23:43:02.022Z,2.90
2023-02-26T23:45:29.076Z,2.90
2023-02-26T23:47:55.833Z,2.90
2023-02-26T23:50:23.370Z,3.00
2023-02-26T23:52:53.160Z,3.00
2023-02-26T23:55:22.120Z,3.00
2023-02-26T23:57:49.242Z,3.00
